Dunlow, WV (25511)

07:07 AM EDT del 30 Luglio 2014 (GMT -0400)
Near Salt Rock Elementary School (KWVSALTR2) Alt. 627 ft | 38.32 °N, 82.23 °W | Change Station

Current weather conditions updated 4 minutes ago

Overcast
Coperto
52.2 °F
Sembra 52.2 °F
N
0.0
Vento Variabile Vento da Ovest
Gusts 0.0 mph

Oggi si prevede un aumento della temperatura rispetto a ieri.

Oggi
Massima -- | Minima -- °F
--% Possibilità di precip.
Ieri
Massima -- | Minima -- °F
Precip. -- in
6:30 AM 8:40 PM
Luna crescente, 11% visible
Pressione 30.11 in
Visibilità 0.8 miglia
Nuvole Coperto 200 ft
Punto di rugiada 51 °F
Umidità 95%
Piovosità 0.00 in
Spessore del manto nevoso Non disponibile.
Raggi UV 0 fuori da 12
Polline 4.80 fuori da 12
Qualità dell'aria Non disponibile.
Flu Activity Non disponibile.
METAR KSJS 301055Z AUTO 19004KT 3/4SM BR OVC002 12/12 A3011 RMK AO2 T01210120

More Conditions Fewer Conditions

Pressione 30.11 in
Visibilità 0.8 miglia
Nuvole Coperto 200 ft
Punto di rugiada 51 °F
Umidità 95%
Piovosità 0.00 in
Spessore del manto nevoso Non disponibile.
Raggi UV 0 fuori da 12
Polline 4.80 fuori da 12
Qualità dell'aria Non disponibile.
Flu Activity Non disponibile.
METAR KSJS 301055Z AUTO 19004KT 3/4SM BR OVC002 12/12 A3011 RMK AO2 T01210120

More Conditions Fewer Conditions

10-Day Weather Forecast

Almanac

Astronomia

Jul. 30, 2014 Alba Tramonto
Ora attuale 06:30 EDT 20:40 EDT
Crepuscolo civile 06:01 EDT 21:09 EDT
Crepuscolo nautico 05:25 EDT 21:45 EDT
Crepuscolo astronomico 04:45 EDT 22:24 EDT
Luna 09:56 EDT 22:27 EDT
Estensione della luce visibile 15h 08m
Lunghezza del giorno
14h 09m
Tomorrow will be 1m 49s shorter.
Luna crescente, 11% of the Moon is Illuminated
Oggi
Luna crescente
Ago 3
Primo quarto
Ago 10
Luna piena
Ago 17
Ultimo quarto
Ago 25
Nuovo

Gli estremi di oggi

State Highs State Lows

Community

WunderPhotos

Upload Photos

1,739,039 foto caricate!

WunderBlogs® & News

Nearby

Profondità neve

Stazione Profondità Altitudine
Non sono state evidenziate nuove nevicate

Attività sismica

Città  Distanza Mag. Data & Ora
Non sono state riportate attività sismiche nelle vicinanze.
Minimo Magnitudo Mostrato è 2.5.

Temperature delle acque costiere

Località Temperatura
Nessun dato dalle stazioni

Stazioni meteo nelle vicinanze

Ubicazione della stazione Temp. Punto di rugiada Umidità Vento Precip. Alt. Aggiornato Tipo
Near Salt Rock Elementary School, Salt Rock, WV 52.2 °F 51 °F 95% Ovest  a  0.0 mph 0.00 in / hr 627 ft 7:03 AM EDT Normale
Trace Creek, Hamlin, WV 51.3 °F 51 °F 99% NO  a  0.0 mph 0.00 in / hr 713 ft 7:06 AM EDT Sequenza Rapida
Salt Rock, Salt Rock, WV 55.2 °F 55 °F 100% SSE  a  0.0 mph 0.01 in / hr 618 ft 6:59 AM EDT Normale

Show More Stations Show Fewer Stations